City's sites:

title views votes rating creation
?never been here 323 12 (3.08)  2010-02-07
?pastel negro 514 14 (2.50)  2010-02-07
?dizzy 228 8 (3.38)  2010-02-07
?two pictures from my desktop 798 16 (3.69)  2010-02-09
?broken clock realizes he is the last object left in the ... 352 10 (3.20)  2010-02-09
?heroes of old 532 19 (3.74)  2010-02-09
?mr. price 361 8 (3.25)  2010-02-09
?Music I Like - Part 1 537 10 (3.60)  2010-02-10
?Music I Like - Part 2 324 13 (3.54)  2010-02-10
?Music I Like - Part 3 469 13 (3.69)  2010-02-10
?Music I Like - Part 4 331 5 (3.20)  2010-02-10
?intense 461 9 (3.78)  2010-02-10
?oh SNAP 676 9 (3.22)  2010-02-10
?Music I Like - Part 5 466 9 (3.56)  2010-02-10
?SignlanguageTMND 312 14 (3.86)  2010-02-10
?lol internet (refresh) 479 6 (3.17)  2010-02-12
?Dumbeldore kills snape! 3,178 67 (4.03)  2010-02-12
?prairiedogeric10 tribute site 580 23 (3.96)  2010-02-13
?Legolewdite fan club 1,195 38 (3.87)  2010-02-13
?Connery retires 326 13 (3.85)  2010-02-13
?TOURNEY4: lol internet 493 7 (2.43)  2010-02-15
?Speed Deemon 883 23 (3.74)  2010-02-23
?Tribute: ASSCOCKredux 1,515 64 (3.91)  2010-02-23
?some light jazz with Robert De Niro 754 12 (3.50)  2010-02-23
?In What Language 1,380 34 (3.74)  2010-02-24
?go go go go go go go go go go go go go go go go ... 1,937 23 (3.74)  2010-02-24
?FEARCONDOM'S FAMILY Q U I L T 552 11 (3.55)  2010-02-24
?TEST 651 19 (3.84)  2010-02-26
?....someday, oh dream maker DUNANANANAN... 4,965 148 (3.96)  2010-02-28
?DOUGH FUNNIE HOMO DICKS 505 12 (3.58)  2010-03-01
?Using a concrete bricK 523 17 (3.82)  2010-03-01
?I had sex with a Kayan Tribe woman, little help plea... 772 11 (3.36)  2010-03-03
?Adventure 4 935 17 (3.65)  2010-03-03
?the standoff 398 9 (3.67)  2010-03-03
?alley children 472 11 (3.91)  2010-03-05
?Steven Seagal isn't impressed 9,670 180 (4.16)  2010-03-05
?Daunting Steps 211 7 (3.00)  2010-03-05
?Cruel and Unusual 6,025 163 (4.24)  2010-03-09
?DancehallTMND 402 10 (3.80)  2010-03-12
?FUCK OUT MY FACE 483 5 (2.60)  2010-03-18
?16, no dither 710 18 (3.94)  2010-03-20
?say hi to my girlfriend 879 16 (3.81)  2010-03-21
?TT 500 16 (3.88)  2010-03-23
?jimmm thinks about his next five 598 20 (3.80)  2010-03-24
?THE TELEKINETIC MAN 241 18 (3.50)  2010-03-25
?. 116 7 (2.71)  2010-03-26
?1! 285 17 (3.35)  2010-03-26
?Fake crocodile takes it to the limit one more time 582 9 (3.67)  2010-03-27
?croctheme 390 4 (3.25)  2010-03-27
?crocodile site 333 6 (3.50)  2010-03-27
?CROC MAKES A 187 LOOK EASY 166 6 (3.33)  2010-03-27
?New Croc SIte 154 5 (3.40)  2010-03-27
?L 294 19 (3.63)  2010-03-27
?crocodile sIte 200 10 (3.50)  2010-03-30
?Pleasant® 242 8 (3.38)  2010-03-30
?A Lovely Ride 201 13 (3.85)  2010-03-30
?It's glorious today 279 14 (3.64)  2010-04-01
?Na - Zu 370 10 (3.70)  2010-04-01
?WHO'NOWOWOWOW 406 5 (2.60)  2010-04-03
?part of your world 194 5 (3.00)  2010-04-04
?fff 170 4 (3.50)  2010-04-04
?FIve-star webiste 886 16 (1.94)  2010-04-04
?Captain Haddock 1,642 28 (3.86)  2010-04-04
?, 247 9 (3.33)  2010-04-05
?indnian 339 7 (2.71)  2010-04-05
?Ricky Manning tribute sIte will be Underway soon ! 196 3 (3.67)  2010-04-06
?Epic Domain Grab 187 6 (2.17)  2010-04-06
?retirement site 157 6 (2.83)  2010-04-06
?Paul newman doesn't drive a VAN 177 4 (3.00)  2010-04-06
?Vince McMan 297 7 (2.86)  2010-04-06
?LOL 266 5 (3.00)  2010-04-06
?wut 248 4 (2.75)  2010-04-06
?www.coachcarter.ytmnd.com 271 8 (1.88)  2010-04-06
?untitled 248 7 (2.14)  2010-04-09
?ExpirimennalTYTMND 313 8 (3.38)  2010-04-09
?jioejejejoijiojiojioejiejoijeoj 363 14 (3.79)  2010-04-09
?Jake Steele catches a fly ball 299 4 (3.50)  2010-04-10
?Jake Steele forgets the milk 286 3 (3.00)  2010-04-10
?Jake Steele just found his watch 267 4 (3.25)  2010-04-10
?Jake Steele grows up a bit 382 7 (2.86)  2010-04-10
?KRA2008 320 5 (2.60)  2010-04-10
?Fuck the world 700 26 (3.88)  2010-04-16
?a sexual guy 447 10 (2.30)  2010-05-12
?well 253 4 (4.25)  2010-09-03
?gay site you can watch while thinking about stuff 1,447 14 (4.07)  2010-09-13
?site dedicated to great warchief 1,208 12 (3.58)  2010-09-16
?38388 792 8 (3.88)  2010-09-16
?watching the world buzz by 447 4 (3.50)  2010-09-16
?what now 1,360 17 (3.94)  2010-09-16